sensor_id;sensor_type;location;lat;lon;timestamp;P1;durP1;ratioP1;P2;durP2;ratioP2
13455;SDS011;6800;50.940;6.940;2022-10-16T00:00:05;3.83;;;2.80;;
13455;SDS011;6800;50.940;6.940;2022-10-16T00:04:06;3.45;;;2.83;;
13455;SDS011;6800;50.940;6.940;2022-10-16T00:08:07;6.85;;;5.18;;
13455;SDS011;6800;50.940;6.940;2022-10-16T00:12:08;3.90;;;3.33;;
13455;SDS011;6800;50.940;6.940;2022-10-16T00:16:09;4.55;;;3.67;;
13455;SDS011;6800;50.940;6.940;2022-10-16T00:20:11;3.47;;;2.80;;
13455;SDS011;6800;50.940;6.940;2022-10-16T00:24:11;3.57;;;3.03;;
13455;SDS011;6800;50.940;6.940;2022-10-16T00:28:11;5.90;;;4.10;;
13455;SDS011;6800;50.940;6.940;2022-10-16T00:32:11;4.77;;;4.00;;
13455;SDS011;6800;50.940;6.940;2022-10-16T00:36:13;2.90;;;2.50;;
13455;SDS011;6800;50.940;6.940;2022-10-16T00:40:15;4.32;;;3.20;;
13455;SDS011;6800;50.940;6.940;2022-10-16T00:48:48;4.13;;;3.10;;
13455;SDS011;6800;50.940;6.940;2022-10-16T00:52:54;3.50;;;3.20;;
13455;SDS011;6800;50.940;6.940;2022-10-16T00:56:56;2.57;;;2.23;;
13455;SDS011;6800;50.940;6.940;2022-10-16T01:00:59;5.00;;;3.80;;
13455;SDS011;6800;50.940;6.940;2022-10-16T01:05:00;3.97;;;2.97;;
13455;SDS011;6800;50.940;6.940;2022-10-16T01:09:04;3.93;;;2.43;;
13455;SDS011;6800;50.940;6.940;2022-10-16T01:13:24;3.33;;;2.47;;
13455;SDS011;6800;50.940;6.940;2022-10-16T01:21:38;2.33;;;2.13;;
13455;SDS011;6800;50.940;6.940;2022-10-16T01:30:23;2.20;;;2.00;;
13455;SDS011;6800;50.940;6.940;2022-10-16T01:34:49;3.37;;;1.80;;
13455;SDS011;6800;50.940;6.940;2022-10-16T01:38:54;3.10;;;2.80;;
13455;SDS011;6800;50.940;6.940;2022-10-16T01:43:05;3.57;;;1.97;;
13455;SDS011;6800;50.940;6.940;2022-10-16T01:47:11;3.40;;;2.20;;
13455;SDS011;6800;50.940;6.940;2022-10-16T01:51:13;1.93;;;1.83;;
13455;SDS011;6800;50.940;6.940;2022-10-16T01:55:17;2.13;;;1.93;;
13455;SDS011;6800;50.940;6.940;2022-10-16T01:59:23;2.37;;;2.17;;
13455;SDS011;6800;50.940;6.940;2022-10-16T02:03:27;3.77;;;2.50;;
13455;SDS011;6800;50.940;6.940;2022-10-16T02:07:27;2.30;;;1.80;;
13455;SDS011;6800;50.940;6.940;2022-10-16T02:11:28;4.17;;;2.90;;
13455;SDS011;6800;50.940;6.940;2022-10-16T02:15:28;1.70;;;1.60;;
13455;SDS011;6800;50.940;6.940;2022-10-16T02:19:28;1.93;;;1.50;;
13455;SDS011;6800;50.940;6.940;2022-10-16T02:23:31;1.90;;;1.60;;
13455;SDS011;6800;50.940;6.940;2022-10-16T02:27:41;3.73;;;1.70;;
13455;SDS011;6800;50.940;6.940;2022-10-16T02:31:48;2.30;;;1.40;;
13455;SDS011;6800;50.940;6.940;2022-10-16T02:35:51;1.70;;;1.30;;
13455;SDS011;6800;50.940;6.940;2022-10-16T02:39:53;2.17;;;1.40;;
13455;SDS011;6800;50.940;6.940;2022-10-16T02:43:55;3.23;;;2.40;;
13455;SDS011;6800;50.940;6.940;2022-10-16T02:47:55;5.00;;;1.80;;
13455;SDS011;6800;50.940;6.940;2022-10-16T02:51:55;4.83;;;3.00;;
13455;SDS011;6800;50.940;6.940;2022-10-16T02:55:56;3.80;;;1.40;;
13455;SDS011;6800;50.940;6.940;2022-10-16T02:59:56;3.37;;;1.63;;
13455;SDS011;6800;50.940;6.940;2022-10-16T03:03:56;1.70;;;1.57;;
13455;SDS011;6800;50.940;6.940;2022-10-16T03:07:56;2.20;;;1.43;;
13455;SDS011;6800;50.940;6.940;2022-10-16T03:11:56;3.53;;;1.90;;
13455;SDS011;6800;50.940;6.940;2022-10-16T03:15:57;4.00;;;1.80;;
13455;SDS011;6800;50.940;6.940;2022-10-16T03:19:57;2.60;;;1.60;;
13455;SDS011;6800;50.940;6.940;2022-10-16T03:23:57;2.43;;;2.10;;
13455;SDS011;6800;50.940;6.940;2022-10-16T03:27:57;2.63;;;1.47;;
13455;SDS011;6800;50.940;6.940;2022-10-16T03:31:58;1.97;;;1.60;;
13455;SDS011;6800;50.940;6.940;2022-10-16T03:35:59;1.60;;;1.50;;
13455;SDS011;6800;50.940;6.940;2022-10-16T03:39:59;2.00;;;1.40;;
13455;SDS011;6800;50.940;6.940;2022-10-16T03:43:59;1.67;;;1.57;;
13455;SDS011;6800;50.940;6.940;2022-10-16T03:47:59;1.30;;;1.20;;
13455;SDS011;6800;50.940;6.940;2022-10-16T03:52:00;3.70;;;1.70;;
13455;SDS011;6800;50.940;6.940;2022-10-16T03:56:00;4.57;;;1.20;;
13455;SDS011;6800;50.940;6.940;2022-10-16T04:00:00;2.07;;;1.47;;
13455;SDS011;6800;50.940;6.940;2022-10-16T04:04:01;1.83;;;1.30;;
13455;SDS011;6800;50.940;6.940;2022-10-16T04:08:01;1.73;;;1.23;;
13455;SDS011;6800;50.940;6.940;2022-10-16T04:12:02;1.43;;;1.00;;
13455;SDS011;6800;50.940;6.940;2022-10-16T04:16:02;1.67;;;1.00;;
13455;SDS011;6800;50.940;6.940;2022-10-16T04:20:02;2.90;;;1.30;;
13455;SDS011;6800;50.940;6.940;2022-10-16T04:24:03;1.40;;;1.30;;
13455;SDS011;6800;50.940;6.940;2022-10-16T04:28:03;2.20;;;1.30;;
13455;SDS011;6800;50.940;6.940;2022-10-16T04:32:04;1.33;;;1.20;;
13455;SDS011;6800;50.940;6.940;2022-10-16T04:36:04;1.37;;;1.20;;
13455;SDS011;6800;50.940;6.940;2022-10-16T04:40:04;1.80;;;1.27;;
13455;SDS011;6800;50.940;6.940;2022-10-16T04:44:05;2.30;;;1.23;;
13455;SDS011;6800;50.940;6.940;2022-10-16T04:48:05;1.30;;;1.20;;
13455;SDS011;6800;50.940;6.940;2022-10-16T04:52:05;2.77;;;1.30;;
13455;SDS011;6800;50.940;6.940;2022-10-16T04:56:06;2.27;;;1.13;;
13455;SDS011;6800;50.940;6.940;2022-10-16T05:00:06;1.77;;;1.20;;
13455;SDS011;6800;50.940;6.940;2022-10-16T05:04:07;1.13;;;1.03;;
13455;SDS011;6800;50.940;6.940;2022-10-16T05:08:08;2.03;;;1.40;;
13455;SDS011;6800;50.940;6.940;2022-10-16T05:12:08;1.87;;;1.10;;
13455;SDS011;6800;50.940;6.940;2022-10-16T05:16:09;2.30;;;1.20;;
13455;SDS011;6800;50.940;6.940;2022-10-16T05:20:09;2.20;;;1.27;;
13455;SDS011;6800;50.940;6.940;2022-10-16T05:24:09;2.93;;;1.30;;
13455;SDS011;6800;50.940;6.940;2022-10-16T05:28:10;2.17;;;1.10;;
13455;SDS011;6800;50.940;6.940;2022-10-16T05:32:10;1.90;;;1.10;;
13455;SDS011;6800;50.940;6.940;2022-10-16T05:36:11;3.40;;;1.37;;
13455;SDS011;6800;50.940;6.940;2022-10-16T05:40:11;1.60;;;1.30;;
13455;SDS011;6800;50.940;6.940;2022-10-16T05:44:12;1.43;;;1.33;;
13455;SDS011;6800;50.940;6.940;2022-10-16T05:48:13;1.53;;;1.40;;
13455;SDS011;6800;50.940;6.940;2022-10-16T05:52:13;2.73;;;1.30;;
13455;SDS011;6800;50.940;6.940;2022-10-16T05:56:13;1.50;;;1.40;;
13455;SDS011;6800;50.940;6.940;2022-10-16T06:00:14;1.77;;;1.67;;
13455;SDS011;6800;50.940;6.940;2022-10-16T06:04:14;2.27;;;1.50;;
13455;SDS011;6800;50.940;6.940;2022-10-16T06:08:14;4.27;;;1.67;;
13455;SDS011;6800;50.940;6.940;2022-10-16T06:12:15;3.70;;;2.07;;
13455;SDS011;6800;50.940;6.940;2022-10-16T06:16:15;2.17;;;1.77;;
13455;SDS011;6800;50.940;6.940;2022-10-16T06:20:16;2.23;;;1.80;;
13455;SDS011;6800;50.940;6.940;2022-10-16T06:24:16;3.47;;;1.80;;
13455;SDS011;6800;50.940;6.940;2022-10-16T06:28:16;5.20;;;1.80;;
13455;SDS011;6800;50.940;6.940;2022-10-16T06:32:16;2.23;;;1.67;;
13455;SDS011;6800;50.940;6.940;2022-10-16T06:36:17;2.63;;;1.77;;
13455;SDS011;6800;50.940;6.940;2022-10-16T06:40:18;2.00;;;1.80;;
13455;SDS011;6800;50.940;6.940;2022-10-16T06:44:18;4.17;;;1.90;;
13455;SDS011;6800;50.940;6.940;2022-10-16T06:48:18;2.67;;;1.70;;
13455;SDS011;6800;50.940;6.940;2022-10-16T06:52:18;1.93;;;1.80;;
13455;SDS011;6800;50.940;6.940;2022-10-16T06:56:25;3.80;;;2.93;;
13455;SDS011;6800;50.940;6.940;2022-10-16T07:00:27;2.80;;;2.23;;
13455;SDS011;6800;50.940;6.940;2022-10-16T07:04:27;9.67;;;7.40;;
13455;SDS011;6800;50.940;6.940;2022-10-16T07:08:27;4.07;;;2.30;;
13455;SDS011;6800;50.940;6.940;2022-10-16T07:12:30;3.97;;;2.40;;
13455;SDS011;6800;50.940;6.940;2022-10-16T07:16:31;3.70;;;2.03;;
13455;SDS011;6800;50.940;6.940;2022-10-16T07:20:32;2.27;;;2.07;;
13455;SDS011;6800;50.940;6.940;2022-10-16T07:24:33;3.05;;;2.00;;
13455;SDS011;6800;50.940;6.940;2022-10-16T07:28:33;2.40;;;2.20;;
13455;SDS011;6800;50.940;6.940;2022-10-16T07:32:34;2.30;;;1.70;;
13455;SDS011;6800;50.940;6.940;2022-10-16T07:36:34;2.65;;;2.13;;
13455;SDS011;6800;50.940;6.940;2022-10-16T07:40:34;2.67;;;1.83;;
13455;SDS011;6800;50.940;6.940;2022-10-16T07:44:35;1.88;;;1.27;;
13455;SDS011;6800;50.940;6.940;2022-10-16T07:48:35;2.85;;;1.48;;
13455;SDS011;6800;50.940;6.940;2022-10-16T07:52:35;2.10;;;1.88;;
13455;SDS011;6800;50.940;6.940;2022-10-16T07:56:36;1.73;;;1.30;;
13455;SDS011;6800;50.940;6.940;2022-10-16T08:00:36;1.65;;;0.90;;
13455;SDS011;6800;50.940;6.940;2022-10-16T08:04:36;2.92;;;1.08;;
13455;SDS011;6800;50.940;6.940;2022-10-16T08:08:37;3.35;;;1.17;;
13455;SDS011;6800;50.940;6.940;2022-10-16T08:12:37;1.77;;;1.10;;
13455;SDS011;6800;50.940;6.940;2022-10-16T08:16:38;2.65;;;1.02;;
13455;SDS011;6800;50.940;6.940;2022-10-16T08:20:38;1.45;;;1.02;;
13455;SDS011;6800;50.940;6.940;2022-10-16T08:24:39;2.92;;;1.00;;
13455;SDS011;6800;50.940;6.940;2022-10-16T08:28:40;2.10;;;1.50;;
13455;SDS011;6800;50.940;6.940;2022-10-16T08:32:40;1.70;;;0.75;;
13455;SDS011;6800;50.940;6.940;2022-10-16T08:36:43;2.50;;;1.17;;
13455;SDS011;6800;50.940;6.940;2022-10-16T08:40:44;1.00;;;0.90;;
13455;SDS011;6800;50.940;6.940;2022-10-16T08:44:54;1.33;;;0.80;;
13455;SDS011;6800;50.940;6.940;2022-10-16T08:49:05;1.52;;;0.60;;
13455;SDS011;6800;50.940;6.940;2022-10-16T08:53:14;0.82;;;0.70;;
13455;SDS011;6800;50.940;6.940;2022-10-16T08:57:22;1.30;;;0.70;;
13455;SDS011;6800;50.940;6.940;2022-10-16T09:01:27;2.10;;;0.90;;
13455;SDS011;6800;50.940;6.940;2022-10-16T09:05:47;2.58;;;1.13;;
13455;SDS011;6800;50.940;6.940;2022-10-16T09:18:33;2.47;;;1.50;;
13455;SDS011;6800;50.940;6.940;2022-10-16T09:22:40;2.10;;;1.90;;
13455;SDS011;6800;50.940;6.940;2022-10-16T09:26:41;1.67;;;0.57;;
13455;SDS011;6800;50.940;6.940;2022-10-16T09:30:42;1.13;;;0.70;;
13455;SDS011;6800;50.940;6.940;2022-10-16T09:34:50;2.90;;;2.70;;
13455;SDS011;6800;50.940;6.940;2022-10-16T09:39:05;2.40;;;0.75;;
13455;SDS011;6800;50.940;6.940;2022-10-16T09:47:40;0.98;;;0.70;;
13455;SDS011;6800;50.940;6.940;2022-10-16T09:51:43;2.17;;;1.98;;
13455;SDS011;6800;50.940;6.940;2022-10-16T09:55:47;2.15;;;1.77;;
13455;SDS011;6800;50.940;6.940;2022-10-16T09:59:55;1.60;;;1.50;;
13455;SDS011;6800;50.940;6.940;2022-10-16T10:03:57;2.95;;;2.63;;
13455;SDS011;6800;50.940;6.940;2022-10-16T10:08:02;1.38;;;0.50;;
13455;SDS011;6800;50.940;6.940;2022-10-16T10:16:24;1.45;;;0.55;;
13455;SDS011;6800;50.940;6.940;2022-10-16T10:20:26;1.00;;;0.90;;
13455;SDS011;6800;50.940;6.940;2022-10-16T10:24:30;1.33;;;0.70;;
13455;SDS011;6800;50.940;6.940;2022-10-16T10:46:41;1.00;;;0.43;;
13455;SDS011;6800;50.940;6.940;2022-10-16T10:50:49;0.75;;;0.50;;
13455;SDS011;6800;50.940;6.940;2022-10-16T10:58:58;1.25;;;0.55;;
13455;SDS011;6800;50.940;6.940;2022-10-16T11:03:07;2.20;;;0.60;;
13455;SDS011;6800;50.940;6.940;2022-10-16T11:07:25;1.27;;;0.40;;
13455;SDS011;6800;50.940;6.940;2022-10-16T11:11:45;2.45;;;1.15;;
13455;SDS011;6800;50.940;6.940;2022-10-16T11:15:53;1.48;;;0.60;;
13455;SDS011;6800;50.940;6.940;2022-10-16T11:20:00;1.42;;;0.85;;
13455;SDS011;6800;50.940;6.940;2022-10-16T11:24:27;1.10;;;0.63;;
13455;SDS011;6800;50.940;6.940;2022-10-16T11:28:46;1.10;;;0.50;;
13455;SDS011;6800;50.940;6.940;2022-10-16T11:32:53;1.17;;;0.47;;
13455;SDS011;6800;50.940;6.940;2022-10-16T11:37:52;1.38;;;0.63;;
13455;SDS011;6800;50.940;6.940;2022-10-16T11:45:46;1.00;;;0.70;;
13455;SDS011;6800;50.940;6.940;2022-10-16T11:49:52;2.00;;;0.50;;
13455;SDS011;6800;50.940;6.940;2022-10-16T11:58:33;2.08;;;0.90;;
13455;SDS011;6800;50.940;6.940;2022-10-16T12:02:44;1.15;;;0.70;;
13455;SDS011;6800;50.940;6.940;2022-10-16T12:06:55;1.58;;;0.40;;
13455;SDS011;6800;50.940;6.940;2022-10-16T12:15:27;1.60;;;0.50;;
13455;SDS011;6800;50.940;6.940;2022-10-16T12:19:30;0.60;;;0.30;;
13455;SDS011;6800;50.940;6.940;2022-10-16T12:23:53;0.90;;;0.32;;
13455;SDS011;6800;50.940;6.940;2022-10-16T12:28:04;0.98;;;0.60;;
13455;SDS011;6800;50.940;6.940;2022-10-16T12:32:19;1.27;;;0.80;;
13455;SDS011;6800;50.940;6.940;2022-10-16T12:36:32;2.05;;;0.55;;
13455;SDS011;6800;50.940;6.940;2022-10-16T12:40:34;1.00;;;0.50;;
13455;SDS011;6800;50.940;6.940;2022-10-16T12:44:37;1.20;;;0.50;;
13455;SDS011;6800;50.940;6.940;2022-10-16T12:48:38;0.90;;;0.50;;
13455;SDS011;6800;50.940;6.940;2022-10-16T12:52:40;1.95;;;0.50;;
13455;SDS011;6800;50.940;6.940;2022-10-16T12:56:51;1.25;;;0.40;;
13455;SDS011;6800;50.940;6.940;2022-10-16T13:00:56;1.42;;;0.70;;
13455;SDS011;6800;50.940;6.940;2022-10-16T13:17:53;1.20;;;0.52;;
13455;SDS011;6800;50.940;6.940;2022-10-16T13:26:23;1.02;;;0.40;;
13455;SDS011;6800;50.940;6.940;2022-10-16T13:30:44;3.75;;;0.93;;
13455;SDS011;6800;50.940;6.940;2022-10-16T13:34:52;0.90;;;0.60;;
13455;SDS011;6800;50.940;6.940;2022-10-16T13:39:00;1.35;;;0.68;;
13455;SDS011;6800;50.940;6.940;2022-10-16T13:43:10;1.17;;;0.70;;
13455;SDS011;6800;50.940;6.940;2022-10-16T13:47:18;0.82;;;0.60;;
13455;SDS011;6800;50.940;6.940;2022-10-16T13:51:23;0.75;;;0.55;;
13455;SDS011;6800;50.940;6.940;2022-10-16T13:55:23;1.92;;;0.70;;
13455;SDS011;6800;50.940;6.940;2022-10-16T13:59:24;0.88;;;0.50;;
13455;SDS011;6800;50.940;6.940;2022-10-16T14:03:28;0.85;;;0.50;;
13455;SDS011;6800;50.940;6.940;2022-10-16T14:07:31;1.73;;;0.60;;
13455;SDS011;6800;50.940;6.940;2022-10-16T14:11:34;2.60;;;0.60;;
13455;SDS011;6800;50.940;6.940;2022-10-16T14:15:46;1.45;;;0.75;;
13455;SDS011;6800;50.940;6.940;2022-10-16T14:19:50;1.90;;;0.70;;
13455;SDS011;6800;50.940;6.940;2022-10-16T14:23:53;1.20;;;0.65;;
13455;SDS011;6800;50.940;6.940;2022-10-16T14:32:03;1.50;;;0.68;;
13455;SDS011;6800;50.940;6.940;2022-10-16T14:36:06;0.70;;;0.45;;
13455;SDS011;6800;50.940;6.940;2022-10-16T14:40:14;1.48;;;0.70;;
13455;SDS011;6800;50.940;6.940;2022-10-16T14:44:15;2.17;;;1.88;;
13455;SDS011;6800;50.940;6.940;2022-10-16T14:48:18;2.60;;;0.93;;
13455;SDS011;6800;50.940;6.940;2022-10-16T14:52:19;1.35;;;0.63;;
13455;SDS011;6800;50.940;6.940;2022-10-16T14:56:23;2.10;;;0.70;;
13455;SDS011;6800;50.940;6.940;2022-10-16T15:00:25;0.60;;;0.50;;
13455;SDS011;6800;50.940;6.940;2022-10-16T15:04:25;2.40;;;0.60;;
13455;SDS011;6800;50.940;6.940;2022-10-16T15:08:26;1.25;;;0.73;;
13455;SDS011;6800;50.940;6.940;2022-10-16T15:12:26;2.08;;;0.90;;
13455;SDS011;6800;50.940;6.940;2022-10-16T15:16:26;1.00;;;0.90;;
13455;SDS011;6800;50.940;6.940;2022-10-16T15:20:30;3.60;;;0.80;;
13455;SDS011;6800;50.940;6.940;2022-10-16T15:24:33;2.20;;;1.00;;
13455;SDS011;6800;50.940;6.940;2022-10-16T15:28:34;3.45;;;0.85;;
13455;SDS011;6800;50.940;6.940;2022-10-16T15:32:35;1.08;;;0.90;;
13455;SDS011;6800;50.940;6.940;2022-10-16T15:36:37;1.15;;;0.90;;
13455;SDS011;6800;50.940;6.940;2022-10-16T15:40:38;2.13;;;0.90;;
13455;SDS011;6800;50.940;6.940;2022-10-16T15:44:38;2.97;;;1.35;;
13455;SDS011;6800;50.940;6.940;2022-10-16T15:48:38;2.92;;;1.40;;
13455;SDS011;6800;50.940;6.940;2022-10-16T15:52:39;1.80;;;1.00;;
13455;SDS011;6800;50.940;6.940;2022-10-16T15:56:40;1.17;;;0.80;;
13455;SDS011;6800;50.940;6.940;2022-10-16T16:00:40;3.15;;;1.02;;
13455;SDS011;6800;50.940;6.940;2022-10-16T16:04:40;1.47;;;0.70;;
13455;SDS011;6800;50.940;6.940;2022-10-16T16:08:41;1.15;;;0.68;;
13455;SDS011;6800;50.940;6.940;2022-10-16T16:12:41;1.30;;;1.00;;
13455;SDS011;6800;50.940;6.940;2022-10-16T16:16:41;2.83;;;1.00;;
13455;SDS011;6800;50.940;6.940;2022-10-16T16:20:42;1.23;;;1.00;;
13455;SDS011;6800;50.940;6.940;2022-10-16T16:24:42;2.25;;;1.13;;
13455;SDS011;6800;50.940;6.940;2022-10-16T16:28:43;3.28;;;1.02;;
13455;SDS011;6800;50.940;6.940;2022-10-16T16:32:43;1.92;;;1.27;;
13455;SDS011;6800;50.940;6.940;2022-10-16T16:36:44;1.65;;;1.20;;
13455;SDS011;6800;50.940;6.940;2022-10-16T16:40:44;2.42;;;1.70;;
13455;SDS011;6800;50.940;6.940;2022-10-16T16:44:44;2.30;;;1.33;;
13455;SDS011;6800;50.940;6.940;2022-10-16T16:48:45;1.75;;;1.27;;
13455;SDS011;6800;50.940;6.940;2022-10-16T16:52:45;2.17;;;1.05;;
13455;SDS011;6800;50.940;6.940;2022-10-16T16:56:45;1.77;;;0.85;;
13455;SDS011;6800;50.940;6.940;2022-10-16T17:00:46;1.95;;;1.13;;
13455;SDS011;6800;50.940;6.940;2022-10-16T17:04:47;4.20;;;1.35;;
13455;SDS011;6800;50.940;6.940;2022-10-16T17:08:47;2.10;;;1.73;;
13455;SDS011;6800;50.940;6.940;2022-10-16T17:12:48;1.40;;;1.30;;
13455;SDS011;6800;50.940;6.940;2022-10-16T17:16:48;2.38;;;1.55;;
13455;SDS011;6800;50.940;6.940;2022-10-16T17:20:49;3.13;;;1.50;;
13455;SDS011;6800;50.940;6.940;2022-10-16T17:24:50;3.28;;;1.58;;
13455;SDS011;6800;50.940;6.940;2022-10-16T17:28:52;3.08;;;1.95;;
13455;SDS011;6800;50.940;6.940;2022-10-16T17:32:56;5.43;;;1.52;;
13455;SDS011;6800;50.940;6.940;2022-10-16T17:36:56;4.15;;;1.70;;
13455;SDS011;6800;50.940;6.940;2022-10-16T17:40:56;4.55;;;1.88;;
13455;SDS011;6800;50.940;6.940;2022-10-16T17:44:57;2.85;;;1.60;;
13455;SDS011;6800;50.940;6.940;2022-10-16T17:48:57;2.25;;;1.65;;
13455;SDS011;6800;50.940;6.940;2022-10-16T17:52:58;1.70;;;1.55;;
13455;SDS011;6800;50.940;6.940;2022-10-16T17:56:58;2.20;;;1.40;;
13455;SDS011;6800;50.940;6.940;2022-10-16T18:00:58;2.85;;;1.20;;
13455;SDS011;6800;50.940;6.940;2022-10-16T18:04:58;3.50;;;1.45;;
13455;SDS011;6800;50.940;6.940;2022-10-16T18:08:59;1.40;;;1.30;;
13455;SDS011;6800;50.940;6.940;2022-10-16T18:13:00;2.90;;;1.40;;
13455;SDS011;6800;50.940;6.940;2022-10-16T18:17:00;2.00;;;1.40;;
13455;SDS011;6800;50.940;6.940;2022-10-16T18:21:02;2.70;;;1.70;;
13455;SDS011;6800;50.940;6.940;2022-10-16T18:25:05;2.38;;;1.40;;
13455;SDS011;6800;50.940;6.940;2022-10-16T18:29:05;1.70;;;1.42;;
13455;SDS011;6800;50.940;6.940;2022-10-16T18:33:06;3.00;;;1.70;;
13455;SDS011;6800;50.940;6.940;2022-10-16T18:37:06;2.08;;;1.30;;
13455;SDS011;6800;50.940;6.940;2022-10-16T18:41:07;2.38;;;1.67;;
13455;SDS011;6800;50.940;6.940;2022-10-16T18:45:07;1.67;;;1.58;;
13455;SDS011;6800;50.940;6.940;2022-10-16T18:49:08;2.15;;;1.95;;
13455;SDS011;6800;50.940;6.940;2022-10-16T18:53:08;2.15;;;1.77;;
13455;SDS011;6800;50.940;6.940;2022-10-16T18:57:08;3.63;;;1.83;;
13455;SDS011;6800;50.940;6.940;2022-10-16T19:01:10;1.60;;;1.40;;
13455;SDS011;6800;50.940;6.940;2022-10-16T19:05:12;2.55;;;1.75;;
13455;SDS011;6800;50.940;6.940;2022-10-16T19:09:13;1.50;;;1.40;;
13455;SDS011;6800;50.940;6.940;2022-10-16T19:13:14;3.75;;;1.98;;
13455;SDS011;6800;50.940;6.940;2022-10-16T19:17:14;2.30;;;1.60;;
13455;SDS011;6800;50.940;6.940;2022-10-16T19:21:14;1.90;;;1.80;;
13455;SDS011;6800;50.940;6.940;2022-10-16T19:25:15;2.65;;;1.73;;
13455;SDS011;6800;50.940;6.940;2022-10-16T19:29:15;2.80;;;1.50;;
13455;SDS011;6800;50.940;6.940;2022-10-16T19:33:15;2.42;;;1.80;;
13455;SDS011;6800;50.940;6.940;2022-10-16T19:37:15;2.42;;;1.80;;
13455;SDS011;6800;50.940;6.940;2022-10-16T19:41:16;2.38;;;1.65;;
13455;SDS011;6800;50.940;6.940;2022-10-16T19:45:17;2.20;;;2.00;;
13455;SDS011;6800;50.940;6.940;2022-10-16T19:49:17;2.03;;;1.87;;
13455;SDS011;6800;50.940;6.940;2022-10-16T19:53:20;2.53;;;1.90;;
13455;SDS011;6800;50.940;6.940;2022-10-16T19:57:20;2.38;;;1.80;;
13455;SDS011;6800;50.940;6.940;2022-10-16T20:01:23;2.10;;;1.83;;
13455;SDS011;6800;50.940;6.940;2022-10-16T20:05:24;3.10;;;1.90;;
13455;SDS011;6800;50.940;6.940;2022-10-16T20:09:25;2.75;;;2.13;;
13455;SDS011;6800;50.940;6.940;2022-10-16T20:13:25;2.70;;;2.00;;
13455;SDS011;6800;50.940;6.940;2022-10-16T20:17:26;3.10;;;2.03;;
13455;SDS011;6800;50.940;6.940;2022-10-16T20:21:27;3.67;;;2.00;;
13455;SDS011;6800;50.940;6.940;2022-10-16T20:25:29;2.00;;;1.90;;
13455;SDS011;6800;50.940;6.940;2022-10-16T20:29:34;3.38;;;2.50;;
13455;SDS011;6800;50.940;6.940;2022-10-16T20:33:34;2.35;;;2.03;;
13455;SDS011;6800;50.940;6.940;2022-10-16T20:37:34;2.20;;;2.00;;
13455;SDS011;6800;50.940;6.940;2022-10-16T20:41:35;3.67;;;2.20;;
13455;SDS011;6800;50.940;6.940;2022-10-16T20:45:35;2.28;;;2.10;;
13455;SDS011;6800;50.940;6.940;2022-10-16T20:49:36;4.20;;;2.22;;
13455;SDS011;6800;50.940;6.940;2022-10-16T20:53:36;4.47;;;2.40;;
13455;SDS011;6800;50.940;6.940;2022-10-16T20:57:36;3.67;;;2.33;;
13455;SDS011;6800;50.940;6.940;2022-10-16T21:01:37;2.78;;;2.40;;
13455;SDS011;6800;50.940;6.940;2022-10-16T21:05:41;4.10;;;2.83;;
13455;SDS011;6800;50.940;6.940;2022-10-16T21:09:42;4.70;;;2.70;;
13455;SDS011;6800;50.940;6.940;2022-10-16T21:13:42;3.38;;;2.88;;
13455;SDS011;6800;50.940;6.940;2022-10-16T21:17:43;4.35;;;3.10;;
13455;SDS011;6800;50.940;6.940;2022-10-16T21:21:43;5.32;;;3.10;;
13455;SDS011;6800;50.940;6.940;2022-10-16T21:25:47;4.78;;;3.10;;
13455;SDS011;6800;50.940;6.940;2022-10-16T21:29:48;7.45;;;3.85;;
13455;SDS011;6800;50.940;6.940;2022-10-16T21:33:48;3.88;;;3.58;;
13455;SDS011;6800;50.940;6.940;2022-10-16T21:37:49;3.88;;;3.58;;
13455;SDS011;6800;50.940;6.940;2022-10-16T21:41:49;5.38;;;3.20;;
13455;SDS011;6800;50.940;6.940;2022-10-16T21:45:50;4.13;;;3.50;;
13455;SDS011;6800;50.940;6.940;2022-10-16T21:49:50;5.07;;;4.00;;
13455;SDS011;6800;50.940;6.940;2022-10-16T21:53:50;6.05;;;3.83;;
13455;SDS011;6800;50.940;6.940;2022-10-16T21:57:51;5.78;;;3.70;;
13455;SDS011;6800;50.940;6.940;2022-10-16T22:01:51;5.10;;;4.40;;
13455;SDS011;6800;50.940;6.940;2022-10-16T22:05:52;4.55;;;4.10;;
13455;SDS011;6800;50.940;6.940;2022-10-16T22:09:53;4.95;;;4.45;;
13455;SDS011;6800;50.940;6.940;2022-10-16T22:13:54;5.03;;;4.40;;
13455;SDS011;6800;50.940;6.940;2022-10-16T22:17:54;6.07;;;4.55;;
13455;SDS011;6800;50.940;6.940;2022-10-16T22:21:55;5.15;;;4.40;;
13455;SDS011;6800;50.940;6.940;2022-10-16T22:26:00;4.50;;;4.10;;
13455;SDS011;6800;50.940;6.940;2022-10-16T22:30:01;7.05;;;4.78;;
13455;SDS011;6800;50.940;6.940;2022-10-16T22:34:02;6.05;;;5.18;;
13455;SDS011;6800;50.940;6.940;2022-10-16T22:38:04;5.30;;;4.90;;
13455;SDS011;6800;50.940;6.940;2022-10-16T22:42:05;5.90;;;5.25;;
13455;SDS011;6800;50.940;6.940;2022-10-16T22:46:06;4.93;;;4.60;;
13455;SDS011;6800;50.940;6.940;2022-10-16T22:50:07;5.28;;;4.70;;
13455;SDS011;6800;50.940;6.940;2022-10-16T22:54:08;8.40;;;5.00;;
13455;SDS011;6800;50.940;6.940;2022-10-16T22:58:08;6.28;;;5.32;;
13455;SDS011;6800;50.940;6.940;2022-10-16T23:02:08;5.70;;;5.15;;
13455;SDS011;6800;50.940;6.940;2022-10-16T23:06:09;5.85;;;5.38;;
